Time;durP1;ratioP1;P1;durP2;ratioP2;P2;SDS_P1;SDS_P2;PMS_P1;PMS_P2;Temp;Humidity;BMP_temperature;BMP_pressure;BME280_temperature;BME280_humidity;BME280_pressure;Samples;Min_cycle;Max_cycle;Signal;HPM_P1;HPM_P2
2022/08/09 00:02:05;;;;;;;0.00;0.00;;;19.90;79.00;;;;;;4959001;28;20030;-81
2022/08/09 00:04:31;;;;;;;0.00;0.00;;;19.80;79.40;;;;;;4966525;28;20078;-80
2022/08/09 00:06:57;;;;;;;0.00;0.00;;;19.80;79.30;;;;;;4967146;28;20678;-77
2022/08/09 00:09:23;;;;;;;0.00;0.00;;;19.80;79.50;;;;;;4961735;28;20082;-81
2022/08/09 00:11:49;;;;;;;0.00;0.00;;;19.80;79.50;;;;;;4984533;28;20019;-78
2022/08/09 00:14:15;;;;;;;0.00;0.00;;;19.80;79.50;;;;;;4983148;28;20023;-78
2022/08/09 00:16:41;;;;;;;0.00;0.00;;;19.80;79.50;;;;;;4965747;28;20103;-81
2022/08/09 00:19:08;;;;;;;0.00;0.00;;;19.80;79.60;;;;;;4968323;28;20558;-80
2022/08/09 00:21:34;;;;;;;0.00;0.00;;;19.80;79.60;;;;;;4983835;28;20018;-80
2022/08/09 00:23:59;;;;;;;0.00;0.00;;;19.80;79.70;;;;;;4977244;28;20432;-81
2022/08/09 00:26:26;;;;;;;0.00;0.00;;;19.70;79.70;;;;;;4977056;28;20097;-80
2022/08/09 00:28:52;;;;;;;0.00;0.00;;;19.70;79.90;;;;;;4986633;28;20033;-78
2022/08/09 00:31:20;;;;;;;0.00;0.00;;;19.70;80.00;;;;;;4987659;28;20848;-79
2022/08/09 00:33:46;;;;;;;0.00;0.00;;;19.70;80.00;;;;;;4985032;28;20037;-81
2022/08/09 00:36:11;;;;;;;0.00;0.00;;;19.60;80.10;;;;;;4987662;28;20162;-81
2022/08/09 00:38:38;;;;;;;0.00;0.00;;;19.60;79.80;;;;;;4978717;28;20116;-78
2022/08/09 00:41:05;;;;;;;0.00;0.00;;;19.60;80.00;;;;;;4976498;28;20033;-82
2022/08/09 00:43:30;;;;;;;0.00;0.00;;;19.60;80.10;;;;;;4977423;28;20175;-79
2022/08/09 00:45:56;;;;;;;0.00;0.00;;;19.60;80.00;;;;;;4977290;28;20027;-79
2022/08/09 00:48:22;;;;;;;0.00;0.00;;;19.60;80.00;;;;;;4983302;28;20042;-79
2022/08/09 00:50:47;;;;;;;0.00;0.00;;;19.50;79.80;;;;;;4961506;28;20038;-76
2022/08/09 00:53:13;;;;;;;0.00;0.00;;;19.50;79.70;;;;;;4979616;28;20101;-77
2022/08/09 00:55:39;;;;;;;0.00;0.00;;;19.60;79.70;;;;;;4981103;28;20078;-78
2022/08/09 00:58:05;;;;;;;0.00;0.00;;;19.50;79.70;;;;;;4982513;28;20030;-78
2022/08/09 01:00:32;;;;;;;0.00;0.00;;;19.50;79.60;;;;;;4988534;28;20078;-80
2022/08/09 01:03:13;;;;;;;0.00;0.00;;;19.50;79.70;;;;;;4984192;28;20037;-78
2022/08/09 01:05:46;;;;;;;0.00;0.00;;;19.50;79.60;;;;;;4983789;28;20057;-78
2022/08/09 01:08:45;;;;;;;0.00;0.00;;;19.50;79.60;;;;;;4991991;28;20339;-81
2022/08/09 01:11:38;;;;;;;0.00;0.00;;;19.40;79.50;;;;;;4982765;28;20054;-81
2022/08/09 01:14:22;;;;;;;0.00;0.00;;;19.40;79.60;;;;;;4979939;28;20031;-81
2022/08/09 01:16:54;;;;;;;0.00;0.00;;;19.30;79.80;;;;;;4965411;28;20057;-80
2022/08/09 01:19:32;;;;;;;0.00;0.00;;;19.20;80.40;;;;;;4990780;28;20023;-80
2022/08/09 01:22:18;;;;;;;0.00;0.00;;;19.20;80.00;;;;;;4986246;28;20026;-78
2022/08/09 01:25:01;;;;;;;0.00;0.00;;;19.20;80.10;;;;;;4983435;28;20045;-81
2022/08/09 01:27:27;;;;;;;0.00;0.00;;;19.30;79.90;;;;;;4982072;28;20030;-79
2022/08/09 01:29:57;;;;;;;0.00;0.00;;;19.30;79.90;;;;;;4985074;28;20026;-76
2022/08/09 01:32:30;;;;;;;0.00;0.00;;;19.20;79.80;;;;;;4976105;28;20050;-80
2022/08/09 01:35:00;;;;;;;0.00;0.00;;;19.30;79.80;;;;;;4975593;28;20041;-81
2022/08/09 01:37:26;;;;;;;0.00;0.00;;;19.20;79.70;;;;;;4965177;28;20034;-81
2022/08/09 01:39:54;;;;;;;0.00;0.00;;;19.30;79.90;;;;;;4979560;28;20018;-77
2022/08/09 01:42:20;;;;;;;0.00;0.00;;;19.20;79.60;;;;;;4976760;28;20372;-80
2022/08/09 01:44:47;;;;;;;0.00;0.00;;;19.30;79.60;;;;;;4962409;28;20031;-78
2022/08/09 01:47:14;;;;;;;0.00;0.00;;;19.30;79.70;;;;;;4997384;28;20109;-79
2022/08/09 01:49:41;;;;;;;0.00;0.00;;;19.20;79.60;;;;;;4989318;28;20086;-79
2022/08/09 01:52:12;;;;;;;0.00;0.00;;;19.30;79.60;;;;;;4979855;28;20560;-78
2022/08/09 01:54:51;;;;;;;0.00;0.00;;;19.20;79.10;;;;;;5002387;28;20045;-77
2022/08/09 01:57:23;;;;;;;0.00;0.00;;;19.30;79.30;;;;;;4976563;28;20396;-78
2022/08/09 01:59:53;;;;;;;0.00;0.00;;;19.20;79.10;;;;;;4975002;28;20029;-77
2022/08/09 02:02:24;;;;;;;0.00;0.00;;;19.30;79.10;;;;;;4983053;28;20026;-77
2022/08/09 02:04:51;;;;;;;0.00;0.00;;;19.20;78.90;;;;;;4975714;28;20058;-78
2022/08/09 02:07:19;;;;;;;0.00;0.00;;;19.20;78.90;;;;;;4976769;28;20306;-79
2022/08/09 02:09:59;;;;;;;0.00;0.00;;;19.10;79.00;;;;;;4990123;28;20082;-78
2022/08/09 02:12:27;;;;;;;0.00;0.00;;;19.10;79.00;;;;;;4977483;28;20018;-77
2022/08/09 02:14:55;;;;;;;0.00;0.00;;;19.10;79.00;;;;;;4983816;28;20033;-77
2022/08/09 02:17:26;;;;;;;0.00;0.00;;;19.10;79.30;;;;;;4976057;28;20022;-78
2022/08/09 02:19:52;;;;;;;0.00;0.00;;;19.10;79.30;;;;;;4987902;28;20090;-78
2022/08/09 02:22:37;;;;;;;0.00;0.00;;;19.00;79.30;;;;;;4980794;28;20117;-76
2022/08/09 02:25:09;;;;;;;0.00;0.00;;;19.10;79.00;;;;;;4985916;28;20056;-79
2022/08/09 02:27:37;;;;;;;0.00;0.00;;;19.10;79.30;;;;;;4975727;28;20352;-78
2022/08/09 02:30:04;;;;;;;0.00;0.00;;;19.10;79.20;;;;;;4978095;28;20072;-79
2022/08/09 02:32:32;;;;;;;0.00;0.00;;;19.10;79.00;;;;;;4996073;28;20209;-78
2022/08/09 02:35:03;;;;;;;0.00;0.00;;;19.00;78.90;;;;;;4977696;28;20026;-76
2022/08/09 02:37:31;;;;;;;0.00;0.00;;;19.00;78.90;;;;;;4974286;28;20110;-79
2022/08/09 02:40:05;;;;;;;0.00;0.00;;;19.00;78.80;;;;;;4978129;28;20196;-76
2022/08/09 02:42:34;;;;;;;0.00;0.00;;;19.00;78.90;;;;;;4978614;28;20035;-78
2022/08/09 02:45:17;;;;;;;0.00;0.00;;;18.90;79.20;;;;;;4988339;28;20077;-78
2022/08/09 02:47:44;;;;;;;0.00;0.00;;;18.90;79.20;;;;;;4981681;28;20036;-78
2022/08/09 02:50:19;;;;;;;0.00;0.00;;;18.90;79.20;;;;;;4983937;28;20353;-80
2022/08/09 02:52:56;;;;;;;0.00;0.00;;;18.90;78.90;;;;;;4986427;28;20053;-79
2022/08/09 02:55:24;;;;;;;0.00;0.00;;;18.90;79.00;;;;;;4984988;28;20062;-79
2022/08/09 02:57:52;;;;;;;0.00;0.00;;;18.80;78.60;;;;;;4982815;28;20026;-80
2022/08/09 03:00:18;;;;;;;0.00;0.00;;;18.80;78.90;;;;;;4985464;28;20591;-78
2022/08/09 03:02:50;;;;;;;0.00;0.00;;;18.80;78.90;;;;;;4975910;28;20041;-79
2022/08/09 03:05:17;;;;;;;0.00;0.00;;;18.80;78.90;;;;;;4990960;28;20018;-78
2022/08/09 03:07:44;;;;;;;0.00;0.00;;;18.80;78.70;;;;;;4986145;28;20030;-78
2022/08/09 03:10:11;;;;;;;0.00;0.00;;;18.80;78.70;;;;;;4982398;28;20043;-77
2022/08/09 03:12:39;;;;;;;0.00;0.00;;;18.80;78.50;;;;;;4976893;28;20105;-78
2022/08/09 03:15:07;;;;;;;0.00;0.00;;;18.80;78.50;;;;;;4974195;28;20097;-81
2022/08/09 03:17:35;;;;;;;0.00;0.00;;;18.80;78.50;;;;;;4984370;28;20030;-81
2022/08/09 03:20:03;;;;;;;0.00;0.00;;;18.80;78.50;;;;;;4975726;28;20065;-80
2022/08/09 03:22:30;;;;;;;0.00;0.00;;;18.80;78.20;;;;;;4982831;28;20026;-81
2022/08/09 03:24:59;;;;;;;0.00;0.00;;;18.80;78.30;;;;;;4986765;28;20093;-77
2022/08/09 03:27:26;;;;;;;0.00;0.00;;;18.80;78.20;;;;;;4980710;28;20030;-78
2022/08/09 03:29:53;;;;;;;0.00;0.00;;;18.80;78.40;;;;;;4976312;28;20046;-78
2022/08/09 03:32:20;;;;;;;0.00;0.00;;;18.70;78.30;;;;;;4996546;28;20050;-80
2022/08/09 03:34:46;;;;;;;0.00;0.00;;;18.80;78.30;;;;;;4989519;28;20026;-78
2022/08/09 03:37:12;;;;;;;0.00;0.00;;;18.70;77.90;;;;;;4988252;28;20139;-79
2022/08/09 03:39:38;;;;;;;0.00;0.00;;;18.70;78.10;;;;;;4982944;28;20023;-78
2022/08/09 03:42:04;;;;;;;0.00;0.00;;;18.70;78.00;;;;;;4973300;28;20058;-81
2022/08/09 03:44:29;;;;;;;0.00;0.00;;;18.70;78.20;;;;;;4977756;28;20057;-81
2022/08/09 03:46:55;;;;;;;0.00;0.00;;;18.70;78.30;;;;;;4973810;28;20027;-80
2022/08/09 03:49:24;;;;;;;0.00;0.00;;;18.70;78.20;;;;;;4982393;28;20029;-81
2022/08/09 03:51:55;;;;;;;0.00;0.00;;;18.70;78.20;;;;;;4973384;28;20042;-81
2022/08/09 03:54:25;;;;;;;0.00;0.00;;;18.70;78.20;;;;;;4981699;28;20037;-82
2022/08/09 03:56:51;;;;;;;0.00;0.00;;;18.70;78.50;;;;;;4984262;28;20042;-82
2022/08/09 03:59:17;;;;;;;0.00;0.00;;;18.70;78.40;;;;;;4977674;28;20124;-75
2022/08/09 04:01:43;;;;;;;0.00;0.00;;;18.70;78.20;;;;;;4963301;28;20249;-78
2022/08/09 04:04:10;;;;;;;0.00;0.00;;;18.70;78.20;;;;;;4974865;28;20051;-75
2022/08/09 04:06:35;;;;;;;0.00;0.00;;;18.70;78.20;;;;;;4984971;28;20065;-81
2022/08/09 04:09:05;;;;;;;0.00;0.00;;;18.70;78.20;;;;;;4992901;28;20238;-79
2022/08/09 04:12:00;;;;;;;0.00;0.00;;;18.70;78.10;;;;;;4983331;28;20132;-81
2022/08/09 04:14:25;;;;;;;0.00;0.00;;;18.60;78.40;;;;;;4962346;28;20106;-81
2022/08/09 04:16:51;;;;;;;0.00;0.00;;;18.60;78.50;;;;;;5001433;28;20014;-79
2022/08/09 04:19:16;;;;;;;0.00;0.00;;;18.60;78.60;;;;;;4979159;28;20042;-77
2022/08/09 04:21:44;;;;;;;0.00;0.00;;;18.60;78.60;;;;;;4981026;28;20081;-81
2022/08/09 04:24:09;;;;;;;0.00;0.00;;;18.60;78.50;;;;;;4998972;28;20262;-80
2022/08/09 04:26:35;;;;;;;0.00;0.00;;;18.60;78.70;;;;;;4983662;28;20076;-77
2022/08/09 04:29:01;;;;;;;0.00;0.00;;;18.50;78.70;;;;;;4980468;28;20026;-79
2022/08/09 04:31:26;;;;;;;0.00;0.00;;;18.50;78.90;;;;;;4983171;28;20512;-78
2022/08/09 04:33:53;;;;;;;0.00;0.00;;;18.50;79.00;;;;;;4984970;28;20053;-80
2022/08/09 04:36:23;;;;;;;0.00;0.00;;;18.50;79.00;;;;;;4983832;28;20452;-80
2022/08/09 04:38:49;;;;;;;0.00;0.00;;;18.50;79.10;;;;;;4967025;28;20487;-77
2022/08/09 04:41:14;;;;;;;0.00;0.00;;;18.60;79.00;;;;;;4985958;28;20018;-78
2022/08/09 04:43:40;;;;;;;0.00;0.00;;;18.60;79.00;;;;;;4983592;28;20108;-79
2022/08/09 04:46:06;;;;;;;0.00;0.00;;;18.60;78.70;;;;;;4980210;28;20038;-79
2022/08/09 04:48:31;;;;;;;0.00;0.00;;;18.60;78.50;;;;;;4995449;28;20134;-81
2022/08/09 04:50:57;;;;;;;0.00;0.00;;;18.60;78.50;;;;;;4980482;28;20018;-78
2022/08/09 04:53:23;;;;;;;0.00;0.00;;;18.70;78.50;;;;;;4980018;28;20023;-77
2022/08/09 04:55:49;;;;;;;0.00;0.00;;;18.70;78.10;;;;;;4981780;28;20022;-78
2022/08/09 04:58:15;;;;;;;0.00;0.00;;;18.70;78.20;;;;;;4983738;28;20027;-77
2022/08/09 05:00:40;;;;;;;0.00;0.00;;;18.70;78.10;;;;;;4966685;28;20400;-78
2022/08/09 05:03:06;;;;;;;0.00;0.00;;;18.70;78.20;;;;;;4964887;28;20485;-79
2022/08/09 05:05:32;;;;;;;0.00;0.00;;;18.70;78.10;;;;;;4979790;28;20683;-79
2022/08/09 05:07:57;;;;;;;0.00;0.00;;;18.80;78.20;;;;;;4993293;28;20034;-76
2022/08/09 05:10:23;;;;;;;0.00;0.00;;;18.80;78.10;;;;;;4984846;28;20066;-79
2022/08/09 05:12:49;;;;;;;0.00;0.00;;;18.80;78.10;;;;;;5002565;28;20089;-78
2022/08/09 05:15:15;;;;;;;0.00;0.00;;;18.90;78.20;;;;;;4979547;28;20038;-79
2022/08/09 05:17:41;;;;;;;0.00;0.00;;;18.90;78.40;;;;;;4980570;28;20025;-78
2022/08/09 05:20:08;;;;;;;0.00;0.00;;;18.90;78.40;;;;;;4980753;28;20027;-77
2022/08/09 05:22:34;;;;;;;0.00;0.00;;;18.90;78.20;;;;;;4978530;28;20102;-81
2022/08/09 05:25:00;;;;;;;0.00;0.00;;;18.90;78.30;;;;;;4986456;28;20049;-77
2022/08/09 05:27:25;;;;;;;0.00;0.00;;;19.00;78.30;;;;;;4981843;28;20046;-78
2022/08/09 05:29:51;;;;;;;0.00;0.00;;;19.00;78.10;;;;;;4985979;28;20065;-79
2022/08/09 05:32:17;;;;;;;0.00;0.00;;;19.00;77.90;;;;;;4984925;28;20014;-77
2022/08/09 05:34:43;;;;;;;0.00;0.00;;;19.00;78.00;;;;;;4983093;28;20237;-81
2022/08/09 05:37:08;;;;;;;0.00;0.00;;;19.10;78.10;;;;;;4979577;28;20319;-80
2022/08/09 05:39:36;;;;;;;0.00;0.00;;;19.10;78.00;;;;;;4977712;28;20073;-81
2022/08/09 05:42:01;;;;;;;0.00;0.00;;;19.20;78.20;;;;;;4975348;28;20042;-76
2022/08/09 05:44:27;;;;;;;0.00;0.00;;;19.30;78.00;;;;;;4978282;28;20317;-77
2022/08/09 05:46:53;;;;;;;0.00;0.00;;;19.40;77.40;;;;;;4988506;28;20026;-77
2022/08/09 05:49:18;;;;;;;0.00;0.00;;;19.40;77.30;;;;;;4986262;28;20023;-79
2022/08/09 05:51:44;;;;;;;0.00;0.00;;;19.50;77.30;;;;;;4984506;28;20034;-79
2022/08/09 05:54:10;;;;;;;0.00;0.00;;;19.50;76.80;;;;;;4980927;28;20037;-79
2022/08/09 05:56:35;;;;;;;0.00;0.00;;;19.50;76.90;;;;;;4985452;28;20022;-78
2022/08/09 05:59:01;;;;;;;0.00;0.00;;;19.60;76.70;;;;;;4965858;28;20026;-76
2022/08/09 06:01:27;;;;;;;0.00;0.00;;;19.60;76.80;;;;;;4986625;28;20018;-77
2022/08/09 06:03:55;;;;;;;0.00;0.00;;;19.70;76.00;;;;;;4979868;28;20066;-77
2022/08/09 06:06:21;;;;;;;0.00;0.00;;;19.70;75.80;;;;;;4959790;28;20026;-80
2022/08/09 06:08:46;;;;;;;0.00;0.00;;;19.70;75.80;;;;;;4981460;28;20285;-77
2022/08/09 06:11:12;;;;;;;0.00;0.00;;;19.70;75.40;;;;;;4981366;28;20224;-77
2022/08/09 06:13:38;;;;;;;0.00;0.00;;;19.80;75.60;;;;;;4980165;28;20031;-82
2022/08/09 06:16:04;;;;;;;0.00;0.00;;;19.80;75.70;;;;;;4975467;28;20224;-81
2022/08/09 06:18:31;;;;;;;0.00;0.00;;;19.80;75.60;;;;;;4982839;28;20305;-80
2022/08/09 06:20:57;;;;;;;0.00;0.00;;;20.00;75.40;;;;;;4975936;28;20332;-78
2022/08/09 06:23:28;;;;;;;0.00;0.00;;;20.30;74.90;;;;;;4980090;28;20086;-80
2022/08/09 06:25:54;;;;;;;0.00;0.00;;;20.70;74.80;;;;;;4981727;28;20033;-78
2022/08/09 06:28:20;;;;;;;0.00;0.00;;;21.50;72.90;;;;;;4978134;28;20022;-83
2022/08/09 06:30:45;;;;;;;0.00;0.00;;;22.30;71.10;;;;;;4981224;28;20046;-81
2022/08/09 06:33:11;;;;;;;0.00;0.00;;;22.90;67.30;;;;;;4978234;28;20029;-81
2022/08/09 06:35:38;;;;;;;0.00;0.00;;;23.60;66.10;;;;;;4981556;28;20038;-76
2022/08/09 06:38:04;;;;;;;0.00;0.00;;;24.00;64.10;;;;;;4961037;28;20019;-80
2022/08/09 06:40:29;;;;;;;0.00;0.00;;;24.30;63.10;;;;;;4980762;28;20026;-81
2022/08/09 06:42:56;;;;;;;0.00;0.00;;;24.60;62.40;;;;;;4977724;28;20033;-81
2022/08/09 06:45:22;;;;;;;0.00;0.00;;;25.00;61.50;;;;;;4980892;28;20273;-81
2022/08/09 06:47:48;;;;;;;0.00;0.00;;;25.30;61.10;;;;;;4978555;28;20437;-81
2022/08/09 06:50:15;;;;;;;0.00;0.00;;;25.50;60.10;;;;;;4975000;28;20019;-81
2022/08/09 06:52:47;;;;;;;0.00;0.00;;;25.50;60.70;;;;;;4980055;28;20324;-81
2022/08/09 06:55:18;;;;;;;0.00;0.00;;;25.70;59.90;;;;;;4978876;28;20038;-78
2022/08/09 06:57:44;;;;;;;0.00;0.00;;;25.80;59.40;;;;;;4980171;28;20030;-81
2022/08/09 07:00:11;;;;;;;0.00;0.00;;;25.70;59.50;;;;;;4960512;28;20125;-81
2022/08/09 07:02:36;;;;;;;0.00;0.00;;;25.60;58.90;;;;;;4974801;28;20325;-79
2022/08/09 07:05:03;;;;;;;0.00;0.00;;;25.60;59.50;;;;;;4980845;28;20090;-78
2022/08/09 07:07:29;;;;;;;0.00;0.00;;;25.20;59.80;;;;;;4981017;28;20028;-82
2022/08/09 07:09:55;;;;;;;0.00;0.00;;;25.30;59.50;;;;;;4981776;28;20065;-78
2022/08/09 07:12:21;;;;;;;0.00;0.00;;;25.10;59.80;;;;;;4979126;28;20054;-79
2022/08/09 07:14:47;;;;;;;0.00;0.00;;;24.20;61.30;;;;;;4980375;28;20022;-79
2022/08/09 07:17:13;;;;;;;0.00;0.00;;;23.60;63.30;;;;;;4984941;28;20269;-79
2022/08/09 07:19:39;;;;;;;0.00;0.00;;;23.10;64.50;;;;;;4973660;28;20027;-79
2022/08/09 07:22:05;;;;;;;0.00;0.00;;;22.70;65.80;;;;;;4980265;28;20089;-77
2022/08/09 07:24:31;;;;;;;0.00;0.00;;;22.40;66.70;;;;;;4974826;28;20076;-80
2022/08/09 07:26:57;;;;;;;0.00;0.00;;;22.20;67.30;;;;;;4994403;28;20607;-78
2022/08/09 07:29:23;;;;;;;0.00;0.00;;;22.10;68.00;;;;;;4974425;28;20015;-77
2022/08/09 07:31:49;;;;;;;0.00;0.00;;;22.00;68.60;;;;;;4993298;28;20221;-79
2022/08/09 07:34:15;;;;;;;0.00;0.00;;;22.00;68.90;;;;;;4978640;28;20304;-79
2022/08/09 07:36:41;;;;;;;0.00;0.00;;;22.00;70.10;;;;;;4991577;28;20022;-80
2022/08/09 07:39:06;;;;;;;0.00;0.00;;;22.00;69.50;;;;;;4973112;28;20340;-78
2022/08/09 07:41:32;;;;;;;0.00;0.00;;;21.90;69.20;;;;;;4978660;28;20027;-77
2022/08/09 07:43:58;;;;;;;0.00;0.00;;;21.90;69.50;;;;;;4982754;28;20022;-77
2022/08/09 07:46:24;;;;;;;0.00;0.00;;;21.90;69.60;;;;;;4996192;28;20102;-79
2022/08/09 07:48:50;;;;;;;0.00;0.00;;;21.90;70.20;;;;;;4993329;28;20057;-79
2022/08/09 07:51:16;;;;;;;0.00;0.00;;;22.00;70.20;;;;;;4979055;28;20027;-78
2022/08/09 07:53:41;;;;;;;0.00;0.00;;;22.00;70.10;;;;;;4981157;28;20026;-77
2022/08/09 07:56:07;;;;;;;0.00;0.00;;;22.00;70.20;;;;;;4983478;28;20030;-76
2022/08/09 07:58:33;;;;;;;0.00;0.00;;;22.00;70.20;;;;;;4983980;28;20027;-79
2022/08/09 08:00:59;;;;;;;0.00;0.00;;;22.00;70.60;;;;;;4982129;28;20094;-79
2022/08/09 08:03:24;;;;;;;0.00;0.00;;;22.00;70.40;;;;;;4984524;28;20030;-78
2022/08/09 08:05:50;;;;;;;0.00;0.00;;;22.10;70.60;;;;;;4985283;28;20241;-80
2022/08/09 08:08:16;;;;;;;0.00;0.00;;;22.10;70.60;;;;;;4984765;28;20060;-79
2022/08/09 08:10:42;;;;;;;0.00;0.00;;;22.20;70.40;;;;;;4985971;28;20050;-79
2022/08/09 08:13:07;;;;;;;0.00;0.00;;;22.20;70.20;;;;;;4981859;28;20027;-77
2022/08/09 08:15:33;;;;;;;0.00;0.00;;;22.10;70.60;;;;;;4983566;28;20026;-79
2022/08/09 08:17:59;;;;;;;0.00;0.00;;;22.20;70.90;;;;;;4997399;28;20022;-79
2022/08/09 08:20:26;;;;;;;0.00;0.00;;;22.30;70.80;;;;;;4966123;28;20066;-76
2022/08/09 08:22:52;;;;;;;0.00;0.00;;;22.30;70.70;;;;;;4984612;28;20015;-79
2022/08/09 08:25:17;;;;;;;0.00;0.00;;;22.40;71.20;;;;;;4983439;28;20371;-77
2022/08/09 08:27:43;;;;;;;0.00;0.00;;;22.50;70.80;;;;;;4981497;28;20030;-79
2022/08/09 08:30:10;;;;;;;0.00;0.00;;;22.50;70.60;;;;;;4984024;28;20032;-78
2022/08/09 08:32:36;;;;;;;0.00;0.00;;;22.50;70.40;;;;;;4980574;28;20314;-78
2022/08/09 08:35:03;;;;;;;0.00;0.00;;;22.60;70.30;;;;;;4963782;28;20041;-78
2022/08/09 08:37:29;;;;;;;0.00;0.00;;;22.70;70.20;;;;;;4979468;28;20551;-77
2022/08/09 08:39:54;;;;;;;0.00;0.00;;;22.70;70.30;;;;;;4980107;28;20026;-78
2022/08/09 08:42:20;;;;;;;0.00;0.00;;;22.70;70.00;;;;;;4976076;28;20042;-78
2022/08/09 08:44:52;;;;;;;0.00;0.00;;;22.80;70.00;;;;;;4977661;28;20097;-78
2022/08/09 08:47:19;;;;;;;0.00;0.00;;;22.90;70.00;;;;;;4963971;28;20030;-79
2022/08/09 08:49:46;;;;;;;0.00;0.00;;;23.00;69.90;;;;;;4984512;28;20057;-78
2022/08/09 08:52:12;;;;;;;0.00;0.00;;;23.40;68.80;;;;;;4995499;28;20015;-79
2022/08/09 08:54:38;;;;;;;0.00;0.00;;;23.80;68.60;;;;;;4981595;28;20038;-79
2022/08/09 08:57:04;;;;;;;0.00;0.00;;;24.30;67.00;;;;;;4985932;28;20134;-79
2022/08/09 08:59:30;;;;;;;0.00;0.00;;;25.20;66.30;;;;;;4981187;28;20042;-79
2022/08/09 09:01:56;;;;;;;0.00;0.00;;;26.40;63.90;;;;;;4985163;28;20010;-79
2022/08/09 09:04:26;;;;;;;0.00;0.00;;;27.80;60.60;;;;;;4985688;28;20034;-79
2022/08/09 09:06:55;;;;;;;0.00;0.00;;;29.50;58.60;;;;;;4983852;28;20030;-79
2022/08/09 09:09:22;;;;;;;0.00;0.00;;;30.80;55.60;;;;;;4984788;28;20074;-78
2022/08/09 09:11:48;;;;;;;0.00;0.00;;;31.50;52.30;;;;;;4981046;28;20106;-79
2022/08/09 09:14:22;;;;;;;0.00;0.00;;;31.80;51.60;;;;;;4981877;28;20054;-80
2022/08/09 09:16:48;;;;;;;0.00;0.00;;;32.40;51.50;;;;;;4999819;28;20025;-76
2022/08/09 09:19:14;;;;;;;0.00;0.00;;;33.70;49.20;;;;;;4981110;28;20027;-80
2022/08/09 09:22:12;;;;;;;0.00;0.00;;;34.40;48.20;;;;;;4981819;28;20049;-80
2022/08/09 09:24:56;;;;;;;0.00;0.00;;;34.20;47.60;;;;;;4966841;28;20491;-79
2022/08/09 09:27:25;;;;;;;0.00;0.00;;;34.80;47.10;;;;;;4983205;28;20309;-80
2022/08/09 09:29:52;;;;;;;0.00;0.00;;;34.60;46.40;;;;;;4983456;28;20174;-80
2022/08/09 09:32:19;;;;;;;0.00;0.00;;;35.60;46.80;;;;;;4981364;28;20022;-77
2022/08/09 09:35:02;;;;;;;0.00;0.00;;;36.00;45.30;;;;;;4983941;28;20078;-79
2022/08/09 09:37:29;;;;;;;0.00;0.00;;;36.50;44.80;;;;;;4978967;28;20022;-79
2022/08/09 09:39:55;;;;;;;0.00;0.00;;;36.50;44.50;;;;;;4963907;28;20030;-80
2022/08/09 09:42:26;;;;;;;0.00;0.00;;;36.30;44.30;;;;;;4981318;28;20021;-79
2022/08/09 09:45:10;;;;;;;0.00;0.00;;;36.20;44.50;;;;;;4980293;28;20027;-79
2022/08/09 09:47:35;;;;;;;0.00;0.00;;;36.60;44.20;;;;;;4967820;28;20109;-80
2022/08/09 09:50:01;;;;;;;0.00;0.00;;;37.70;43.00;;;;;;4983588;28;20022;-79
2022/08/09 09:52:27;;;;;;;0.00;0.00;;;36.70;42.60;;;;;;4963636;28;20081;-79
2022/08/09 09:55:05;;;;;;;0.00;0.00;;;36.20;43.60;;;;;;4983295;28;20046;-80
2022/08/09 09:57:30;;;;;;;0.00;0.00;;;36.30;44.10;;;;;;4991183;28;20145;-78
2022/08/09 09:59:56;;;;;;;0.00;0.00;;;36.30;43.40;;;;;;4980897;28;20096;-80
2022/08/09 10:02:25;;;;;;;0.00;0.00;;;37.00;43.20;;;;;;4976465;28;20097;-79
2022/08/09 10:05:07;;;;;;;0.00;0.00;;;37.80;42.00;;;;;;4975734;28;20116;-79
2022/08/09 10:07:33;;;;;;;0.00;0.00;;;36.30;43.80;;;;;;4964076;28;20031;-80
2022/08/09 10:10:00;;;;;;;0.00;0.00;;;37.60;42.40;;;;;;4979539;28;20049;-79
2022/08/09 10:12:29;;;;;;;0.00;0.00;;;36.70;41.80;;;;;;4965698;28;20034;-78
2022/08/09 10:15:14;;;;;;;0.00;0.00;;;35.70;43.40;;;;;;4994847;28;20025;-78
2022/08/09 10:17:42;;;;;;;0.00;0.00;;;36.00;43.00;;;;;;4982559;28;20399;-77
2022/08/09 10:20:26;;;;;;;0.00;0.00;;;35.70;43.10;;;;;;4978571;28;20030;-76
2022/08/09 10:22:54;;;;;;;0.00;0.00;;;34.70;43.70;;;;;;4987382;28;20260;-82
2022/08/09 10:25:21;;;;;;;0.00;0.00;;;35.10;44.40;;;;;;4980318;28;20030;-82
2022/08/09 10:27:47;;;;;;;0.00;0.00;;;34.90;45.30;;;;;;4995631;28;20537;-80
2022/08/09 10:30:13;;;;;;;0.00;0.00;;;35.50;44.30;;;;;;4978805;28;20032;-79
2022/08/09 10:32:40;;;;;;;0.00;0.00;;;35.40;43.50;;;;;;4979670;28;20146;-80
2022/08/09 10:35:08;;;;;;;0.00;0.00;;;35.70;44.50;;;;;;4979521;28;20022;-81
2022/08/09 10:37:34;;;;;;;0.00;0.00;;;36.10;43.30;;;;;;4981762;28;20077;-80
2022/08/09 10:40:00;;;;;;;0.00;0.00;;;34.80;42.80;;;;;;4977319;28;20198;-80
2022/08/09 10:42:26;;;;;;;0.00;0.00;;;34.00;45.30;;;;;;4978329;28;20098;-79
2022/08/09 10:45:08;;;;;;;0.00;0.00;;;33.30;45.30;;;;;;4976786;28;20055;-79
2022/08/09 10:48:08;;;;;;;0.00;0.00;;;34.20;46.60;;;;;;4982180;28;20042;-81
2022/08/09 10:51:05;;;;;;;0.00;0.00;;;35.20;44.70;;;;;;4976518;28;20026;-80
2022/08/09 10:53:55;;;;;;;0.00;0.00;;;35.40;44.10;;;;;;4982054;28;20045;-81
2022/08/09 10:56:22;;;;;;;0.00;0.00;;;35.20;43.10;;;;;;4981752;28;20022;-80
2022/08/09 10:58:50;;;;;;;0.00;0.00;;;34.40;43.80;;;;;;4983731;28;20069;-80
2022/08/09 11:01:31;;;;;;;0.00;0.00;;;34.20;44.60;;;;;;4981653;28;20105;-80
2022/08/09 11:04:09;;;;;;;0.00;0.00;;;35.30;44.60;;;;;;4980129;28;20028;-79
2022/08/09 11:06:36;;;;;;;0.00;0.00;;;36.60;43.80;;;;;;4976604;28;20094;-81
2022/08/09 11:09:06;;;;;;;0.00;0.00;;;38.10;42.20;;;;;;4986713;28;20030;-79
2022/08/09 11:11:54;;;;;;;0.00;0.00;;;37.00;40.40;;;;;;4987503;28;20058;-80
2022/08/09 11:14:37;;;;;;;0.00;0.00;;;36.00;41.00;;;;;;4988611;28;20041;-81
2022/08/09 11:17:14;;;;;;;0.00;0.00;;;36.60;40.50;;;;;;4977641;28;20030;-81
2022/08/09 11:20:08;;;;;;;0.00;0.00;;;35.50;40.50;;;;;;4984532;28;20025;-80
2022/08/09 11:22:43;;;;;;;0.00;0.00;;;35.30;41.70;;;;;;4980941;28;20038;-80
2022/08/09 11:25:13;;;;;;;0.00;0.00;;;36.60;41.20;;;;;;4978969;28;20335;-77
2022/08/09 11:27:40;;;;;;;0.00;0.00;;;36.90;40.20;;;;;;4980663;28;20043;-81
2022/08/09 11:30:10;;;;;;;0.00;0.00;;;37.60;40.80;;;;;;4978523;28;20068;-80
2022/08/09 11:32:46;;;;;;;0.00;0.00;;;38.60;39.90;;;;;;4971360;28;20061;-81
2022/08/09 11:35:26;;;;;;;0.00;0.00;;;38.80;38.00;;;;;;4980257;28;20023;-81
2022/08/09 11:38:14;;;;;;;0.00;0.00;;;39.10;38.60;;;;;;4985472;28;20019;-81
2022/08/09 11:40:40;;;;;;;0.00;0.00;;;39.10;37.60;;;;;;4968722;28;20018;-78
2022/08/09 11:43:06;;;;;;;0.00;0.00;;;38.80;37.40;;;;;;4982652;28;20076;-81
2022/08/09 11:45:37;;;;;;;0.00;0.00;;;38.50;37.70;;;;;;4984648;28;20038;-81
2022/08/09 11:48:17;;;;;;;0.00;0.00;;;38.70;37.40;;;;;;4988240;28;20061;-82
2022/08/09 11:51:00;;;;;;;0.00;0.00;;;39.00;37.30;;;;;;4975499;28;20029;-78
2022/08/09 11:53:34;;;;;;;0.00;0.00;;;38.30;36.90;;;;;;4979324;28;20019;-81
2022/08/09 11:56:26;;;;;;;0.00;0.00;;;38.60;37.40;;;;;;4980987;28;20121;-82
2022/08/09 11:59:01;;;;;;;0.00;0.00;;;37.90;36.90;;;;;;4977439;28;20022;-78
2022/08/09 12:01:36;;;;;;;0.00;0.00;;;37.60;37.50;;;;;;4976909;28;20339;-79
2022/08/09 12:04:06;;;;;;;0.00;0.00;;;36.60;38.00;;;;;;4970105;28;20085;-80
2022/08/09 12:06:32;;;;;;;0.00;0.00;;;35.60;38.50;;;;;;4988103;28;20031;-79
2022/08/09 12:08:59;;;;;;;0.00;0.00;;;34.00;39.60;;;;;;4986086;28;20305;-80
2022/08/09 12:11:26;;;;;;;0.00;0.00;;;32.60;41.50;;;;;;4985770;28;20122;-81
2022/08/09 12:13:55;;;;;;;0.00;0.00;;;31.80;43.00;;;;;;4986339;28;20030;-81
2022/08/09 12:16:27;;;;;;;0.00;0.00;;;31.30;42.40;;;;;;4979311;28;20030;-82
2022/08/09 12:18:54;;;;;;;0.00;0.00;;;30.90;43.60;;;;;;4967398;28;20019;-82
2022/08/09 12:21:38;;;;;;;0.00;0.00;;;30.40;45.50;;;;;;4978966;28;20033;-81
2022/08/09 12:24:06;;;;;;;0.00;0.00;;;29.90;45.10;;;;;;4998801;28;20022;-80
2022/08/09 12:26:49;;;;;;;0.00;0.00;;;29.80;45.50;;;;;;4983151;28;20026;-79
2022/08/09 12:29:16;;;;;;;0.00;0.00;;;29.50;45.40;;;;;;4964954;28;20042;-76
2022/08/09 12:31:44;;;;;;;0.00;0.00;;;29.00;46.70;;;;;;4963730;28;20287;-78
2022/08/09 12:34:11;;;;;;;0.00;0.00;;;28.90;46.20;;;;;;4996027;28;20087;-81
2022/08/09 12:36:55;;;;;;;0.00;0.00;;;28.80;46.60;;;;;;4981742;28;20031;-79
2022/08/09 12:39:21;;;;;;;0.00;0.00;;;28.50;46.00;;;;;;4981384;28;20385;-78
2022/08/09 12:41:47;;;;;;;0.00;0.00;;;28.30;46.30;;;;;;4981405;28;20037;-78
2022/08/09 12:44:13;;;;;;;0.00;0.00;;;28.10;46.70;;;;;;4963244;28;20030;-78
2022/08/09 12:46:45;;;;;;;0.00;0.00;;;28.20;47.60;;;;;;4967532;28;20044;-77
2022/08/09 12:49:12;;;;;;;0.00;0.00;;;28.10;47.70;;;;;;4979707;28;20102;-78
2022/08/09 12:51:38;;;;;;;0.00;0.00;;;28.00;47.90;;;;;;4980612;28;20026;-77
2022/08/09 12:54:05;;;;;;;0.00;0.00;;;28.00;47.70;;;;;;4980267;28;20030;-78
2022/08/09 12:56:32;;;;;;;0.00;0.00;;;28.00;48.40;;;;;;4982389;28;20139;-79
2022/08/09 12:59:17;;;;;;;0.00;0.00;;;27.90;49.10;;;;;;4968278;28;20127;-80